createdAt,value
2023-03-02T00:00:23.325Z,1.47
2023-03-02T00:15:23.789Z,1.20
2023-03-02T00:30:23.650Z,1.23
2023-03-02T00:45:23.715Z,0.82
2023-03-02T01:00:23.730Z,0.93
2023-03-02T01:15:23.807Z,0.65
2023-03-02T01:30:23.953Z,1.00
2023-03-02T01:45:23.962Z,0.88
2023-03-02T02:00:24.075Z,1.08
2023-03-02T02:15:24.189Z,1.73
2023-03-02T02:30:24.117Z,1.50
2023-03-02T02:45:23.906Z,1.73
2023-03-02T03:00:24.109Z,1.77
2023-03-02T03:15:24.246Z,1.65
2023-03-02T03:30:24.183Z,1.77
2023-03-02T03:45:33.100Z,1.62
2023-03-02T04:00:33.169Z,1.77
2023-03-02T04:15:23.465Z,1.72
2023-03-02T04:30:23.333Z,2.03
2023-03-02T04:45:23.799Z,1.92
2023-03-02T05:00:23.627Z,2.00
2023-03-02T05:15:23.892Z,2.33
2023-03-02T05:30:23.640Z,2.12
2023-03-02T05:45:23.804Z,2.17
2023-03-02T06:00:23.846Z,2.17
2023-03-02T06:15:24.055Z,1.98
2023-03-02T06:30:23.836Z,1.90
2023-03-02T06:45:23.878Z,2.00
2023-03-02T07:00:25.741Z,2.03
2023-03-02T07:15:24.381Z,2.08
2023-03-02T07:30:23.949Z,2.12
2023-03-02T07:45:24.186Z,2.20
2023-03-02T08:00:24.162Z,2.35
2023-03-02T08:15:33.119Z,2.63
2023-03-02T08:30:33.228Z,2.75
2023-03-02T08:45:33.558Z,2.97
2023-03-02T09:00:33.513Z,3.12
2023-03-02T09:15:23.721Z,3.33
2023-03-02T09:30:23.644Z,3.50
2023-03-02T09:45:23.827Z,3.65
2023-03-02T10:00:23.537Z,4.00
2023-03-02T10:15:23.563Z,4.00
2023-03-02T10:30:23.792Z,4.23
2023-03-02T10:45:24.044Z,4.57
2023-03-02T11:00:24.520Z,4.78
2023-03-02T11:15:23.462Z,5.00
2023-03-02T11:30:23.465Z,5.25
2023-03-02T11:45:23.712Z,5.40
2023-03-02T12:00:23.860Z,5.70
2023-03-02T12:15:23.782Z,5.80
2023-03-02T12:30:23.644Z,6.00
2023-03-02T12:45:24.060Z,6.30
2023-03-02T13:00:23.512Z,6.60
2023-03-02T13:15:23.974Z,6.50
2023-03-02T13:30:23.996Z,6.77
2023-03-02T13:45:24.139Z,6.60
2023-03-02T14:00:23.819Z,6.70
2023-03-02T14:15:24.275Z,6.70
2023-03-02T14:30:24.145Z,6.85
2023-03-02T14:45:24.402Z,7.17
2023-03-02T15:00:24.398Z,7.12
2023-03-02T15:15:24.457Z,7.35
2023-03-02T15:30:24.159Z,7.35
2023-03-02T15:45:33.399Z,7.20
2023-03-02T16:00:33.154Z,7.27
2023-03-02T16:15:23.627Z,6.93
2023-03-02T16:30:23.802Z,7.10
2023-03-02T16:45:23.445Z,6.50
2023-03-02T17:00:23.618Z,6.15
2023-03-02T17:15:23.851Z,6.07
2023-03-02T17:30:23.745Z,5.55
2023-03-02T17:45:23.565Z,5.50
2023-03-02T18:00:23.945Z,4.98
2023-03-02T18:15:23.976Z,4.90
2023-03-02T18:30:23.816Z,4.30
2023-03-02T18:45:24.149Z,4.35
2023-03-02T19:00:26.695Z,4.43
2023-03-02T19:15:24.256Z,4.27
2023-03-02T19:30:23.892Z,4.37
2023-03-02T19:45:24.173Z,3.88
2023-03-02T20:00:24.104Z,3.62
2023-03-02T20:15:24.357Z,3.67
2023-03-02T20:30:32.993Z,3.28
2023-03-02T20:45:33.361Z,3.27
2023-03-02T21:00:33.363Z,2.97
2023-03-02T21:15:23.549Z,3.20
2023-03-02T21:30:23.270Z,3.20
2023-03-02T21:45:23.574Z,3.25
2023-03-02T22:00:23.559Z,3.22
2023-03-02T22:15:23.583Z,3.38
2023-03-02T22:30:23.528Z,3.55
2023-03-02T22:45:23.717Z,3.35
2023-03-02T23:00:41.287Z,4.50
2023-03-02T23:15:23.202Z,3.30
2023-03-02T23:30:23.634Z,3.17
2023-03-02T23:45:23.369Z,3.25
